sensor_id;sensor_type;location;lat;lon;timestamp;P1;durP1;ratioP1;P2;durP2;ratioP2
29380;SDS011;16364;52.490;13.326;2024-02-14T00:01:47;7.70;;;5.53;;
29380;SDS011;16364;52.490;13.326;2024-02-14T00:04:12;6.00;;;5.40;;
29380;SDS011;16364;52.490;13.326;2024-02-14T00:06:39;10.17;;;5.60;;
29380;SDS011;16364;52.490;13.326;2024-02-14T00:09:04;6.53;;;4.53;;
29380;SDS011;16364;52.490;13.326;2024-02-14T00:11:31;5.90;;;4.40;;
29380;SDS011;16364;52.490;13.326;2024-02-14T00:13:57;9.63;;;5.87;;
29380;SDS011;16364;52.490;13.326;2024-02-14T00:16:22;5.60;;;5.10;;
29380;SDS011;16364;52.490;13.326;2024-02-14T00:18:47;6.47;;;5.87;;
29380;SDS011;16364;52.490;13.326;2024-02-14T00:21:13;8.53;;;5.00;;
29380;SDS011;16364;52.490;13.326;2024-02-14T00:23:38;8.80;;;5.73;;
29380;SDS011;16364;52.490;13.326;2024-02-14T00:26:03;6.73;;;6.13;;
29380;SDS011;16364;52.490;13.326;2024-02-14T00:28:28;6.83;;;4.83;;
29380;SDS011;16364;52.490;13.326;2024-02-14T00:30:54;5.90;;;5.17;;
29380;SDS011;16364;52.490;13.326;2024-02-14T00:33:19;11.30;;;5.87;;
29380;SDS011;16364;52.490;13.326;2024-02-14T00:35:46;7.30;;;5.93;;
29380;SDS011;16364;52.490;13.326;2024-02-14T00:38:11;6.07;;;5.10;;
29380;SDS011;16364;52.490;13.326;2024-02-14T00:40:36;5.63;;;4.83;;
29380;SDS011;16364;52.490;13.326;2024-02-14T00:43:02;4.87;;;4.37;;
29380;SDS011;16364;52.490;13.326;2024-02-14T00:45:27;6.53;;;5.20;;
29380;SDS011;16364;52.490;13.326;2024-02-14T00:47:52;8.83;;;6.40;;
29380;SDS011;16364;52.490;13.326;2024-02-14T00:50:17;7.03;;;5.30;;
29380;SDS011;16364;52.490;13.326;2024-02-14T00:52:43;6.83;;;4.67;;
29380;SDS011;16364;52.490;13.326;2024-02-14T00:55:08;5.60;;;4.70;;
29380;SDS011;16364;52.490;13.326;2024-02-14T00:57:33;6.07;;;4.60;;
29380;SDS011;16364;52.490;13.326;2024-02-14T00:59:59;5.17;;;4.67;;
29380;SDS011;16364;52.490;13.326;2024-02-14T01:02:24;7.80;;;5.73;;
29380;SDS011;16364;52.490;13.326;2024-02-14T01:04:51;7.70;;;4.37;;
29380;SDS011;16364;52.490;13.326;2024-02-14T01:07:16;6.17;;;4.80;;
29380;SDS011;16364;52.490;13.326;2024-02-14T01:09:41;5.53;;;4.60;;
29380;SDS011;16364;52.490;13.326;2024-02-14T01:12:07;6.50;;;5.63;;
29380;SDS011;16364;52.490;13.326;2024-02-14T01:14:32;6.20;;;4.37;;
29380;SDS011;16364;52.490;13.326;2024-02-14T01:16:57;8.87;;;4.80;;
29380;SDS011;16364;52.490;13.326;2024-02-14T01:19:22;5.57;;;4.90;;
29380;SDS011;16364;52.490;13.326;2024-02-14T01:21:49;7.80;;;4.90;;
29380;SDS011;16364;52.490;13.326;2024-02-14T01:24:14;6.83;;;6.13;;
29380;SDS011;16364;52.490;13.326;2024-02-14T01:26:40;5.53;;;4.70;;
29380;SDS011;16364;52.490;13.326;2024-02-14T01:29:05;7.60;;;5.60;;
29380;SDS011;16364;52.490;13.326;2024-02-14T01:31:30;7.57;;;5.63;;
29380;SDS011;16364;52.490;13.326;2024-02-14T01:33:56;7.60;;;5.73;;
29380;SDS011;16364;52.490;13.326;2024-02-14T01:36:22;5.23;;;4.00;;
29380;SDS011;16364;52.490;13.326;2024-02-14T01:38:47;5.07;;;3.90;;
29380;SDS011;16364;52.490;13.326;2024-02-14T01:41:13;5.40;;;4.80;;
29380;SDS011;16364;52.490;13.326;2024-02-14T01:43:38;5.77;;;4.30;;
29380;SDS011;16364;52.490;13.326;2024-02-14T01:46:07;6.10;;;5.50;;
29380;SDS011;16364;52.490;13.326;2024-02-14T01:48:33;4.93;;;4.43;;
29380;SDS011;16364;52.490;13.326;2024-02-14T01:50:58;4.80;;;4.40;;
29380;SDS011;16364;52.490;13.326;2024-02-14T01:53:24;6.90;;;4.60;;
29380;SDS011;16364;52.490;13.326;2024-02-14T01:55:50;8.60;;;5.40;;
29380;SDS011;16364;52.490;13.326;2024-02-14T01:58:16;7.33;;;4.50;;
29380;SDS011;16364;52.490;13.326;2024-02-14T02:00:41;5.80;;;4.57;;
29380;SDS011;16364;52.490;13.326;2024-02-14T02:03:07;5.40;;;4.90;;
29380;SDS011;16364;52.490;13.326;2024-02-14T02:05:33;5.20;;;4.80;;
29380;SDS011;16364;52.490;13.326;2024-02-14T02:07:59;5.40;;;4.20;;
29380;SDS011;16364;52.490;13.326;2024-02-14T02:10:24;6.50;;;4.30;;
29380;SDS011;16364;52.490;13.326;2024-02-14T02:12:50;5.07;;;4.63;;
29380;SDS011;16364;52.490;13.326;2024-02-14T02:15:16;4.30;;;3.90;;
29380;SDS011;16364;52.490;13.326;2024-02-14T02:17:41;7.43;;;4.90;;
29380;SDS011;16364;52.490;13.326;2024-02-14T02:20:07;5.20;;;4.50;;
29380;SDS011;16364;52.490;13.326;2024-02-14T02:22:33;5.97;;;4.40;;
29380;SDS011;16364;52.490;13.326;2024-02-14T02:25:00;5.20;;;4.70;;
29380;SDS011;16364;52.490;13.326;2024-02-14T02:27:26;5.10;;;4.60;;
29380;SDS011;16364;52.490;13.326;2024-02-14T02:29:51;6.87;;;5.50;;
29380;SDS011;16364;52.490;13.326;2024-02-14T02:32:16;5.20;;;4.67;;
29380;SDS011;16364;52.490;13.326;2024-02-14T02:34:43;4.87;;;4.30;;
29380;SDS011;16364;52.490;13.326;2024-02-14T02:37:10;7.27;;;5.33;;
29380;SDS011;16364;52.490;13.326;2024-02-14T02:39:35;7.57;;;5.13;;
29380;SDS011;16364;52.490;13.326;2024-02-14T02:42:02;8.20;;;4.30;;
29380;SDS011;16364;52.490;13.326;2024-02-14T02:44:27;5.33;;;4.40;;
29380;SDS011;16364;52.490;13.326;2024-02-14T02:46:52;4.20;;;3.80;;
29380;SDS011;16364;52.490;13.326;2024-02-14T02:49:18;5.73;;;4.77;;
29380;SDS011;16364;52.490;13.326;2024-02-14T02:51:43;7.53;;;5.00;;
29380;SDS011;16364;52.490;13.326;2024-02-14T02:54:09;5.20;;;4.80;;
29380;SDS011;16364;52.490;13.326;2024-02-14T02:56:36;4.93;;;4.20;;
29380;SDS011;16364;52.490;13.326;2024-02-14T02:59:01;7.80;;;5.27;;
29380;SDS011;16364;52.490;13.326;2024-02-14T03:01:28;4.60;;;4.20;;
29380;SDS011;16364;52.490;13.326;2024-02-14T03:03:55;5.03;;;4.40;;
29380;SDS011;16364;52.490;13.326;2024-02-14T03:06:21;8.30;;;4.40;;
29380;SDS011;16364;52.490;13.326;2024-02-14T03:08:46;7.00;;;4.87;;
29380;SDS011;16364;52.490;13.326;2024-02-14T03:11:14;10.40;;;4.50;;
29380;SDS011;16364;52.490;13.326;2024-02-14T03:13:40;5.03;;;4.53;;
29380;SDS011;16364;52.490;13.326;2024-02-14T03:16:06;5.97;;;4.73;;
29380;SDS011;16364;52.490;13.326;2024-02-14T03:18:31;8.70;;;4.73;;
29380;SDS011;16364;52.490;13.326;2024-02-14T03:20:57;5.57;;;5.07;;
29380;SDS011;16364;52.490;13.326;2024-02-14T03:23:22;6.10;;;4.80;;
29380;SDS011;16364;52.490;13.326;2024-02-14T03:25:48;4.87;;;4.30;;
29380;SDS011;16364;52.490;13.326;2024-02-14T03:28:13;5.43;;;4.60;;
29380;SDS011;16364;52.490;13.326;2024-02-14T03:30:39;7.17;;;4.20;;
29380;SDS011;16364;52.490;13.326;2024-02-14T03:33:04;6.10;;;4.23;;
29380;SDS011;16364;52.490;13.326;2024-02-14T03:35:30;5.77;;;4.47;;
29380;SDS011;16364;52.490;13.326;2024-02-14T03:37:55;4.70;;;4.30;;
29380;SDS011;16364;52.490;13.326;2024-02-14T03:40:21;11.07;;;4.73;;
29380;SDS011;16364;52.490;13.326;2024-02-14T03:42:47;5.73;;;4.70;;
29380;SDS011;16364;52.490;13.326;2024-02-14T03:45:12;5.43;;;4.83;;
29380;SDS011;16364;52.490;13.326;2024-02-14T03:47:37;4.50;;;4.00;;
29380;SDS011;16364;52.490;13.326;2024-02-14T03:50:07;6.67;;;4.17;;
29380;SDS011;16364;52.490;13.326;2024-02-14T03:52:32;5.80;;;4.30;;
29380;SDS011;16364;52.490;13.326;2024-02-14T03:54:58;7.50;;;4.40;;
29380;SDS011;16364;52.490;13.326;2024-02-14T03:57:24;5.57;;;4.80;;
29380;SDS011;16364;52.490;13.326;2024-02-14T03:59:50;5.13;;;4.63;;
29380;SDS011;16364;52.490;13.326;2024-02-14T04:02:15;7.43;;;5.10;;
29380;SDS011;16364;52.490;13.326;2024-02-14T04:04:41;4.30;;;4.00;;
29380;SDS011;16364;52.490;13.326;2024-02-14T04:07:06;8.87;;;4.93;;
29380;SDS011;16364;52.490;13.326;2024-02-14T04:09:33;5.50;;;4.97;;
29380;SDS011;16364;52.490;13.326;2024-02-14T04:11:58;11.23;;;5.80;;
29380;SDS011;16364;52.490;13.326;2024-02-14T04:14:24;5.87;;;4.60;;
29380;SDS011;16364;52.490;13.326;2024-02-14T04:16:49;4.80;;;4.33;;
29380;SDS011;16364;52.490;13.326;2024-02-14T04:19:14;5.90;;;5.37;;
29380;SDS011;16364;52.490;13.326;2024-02-14T04:21:42;5.17;;;4.67;;
29380;SDS011;16364;52.490;13.326;2024-02-14T04:24:07;6.97;;;4.80;;
29380;SDS011;16364;52.490;13.326;2024-02-14T04:26:33;7.33;;;4.80;;
29380;SDS011;16364;52.490;13.326;2024-02-14T04:28:59;11.20;;;5.60;;
29380;SDS011;16364;52.490;13.326;2024-02-14T04:31:24;7.20;;;5.20;;
29380;SDS011;16364;52.490;13.326;2024-02-14T04:33:49;8.80;;;5.77;;
29380;SDS011;16364;52.490;13.326;2024-02-14T04:36:17;7.87;;;5.20;;
29380;SDS011;16364;52.490;13.326;2024-02-14T04:38:43;6.13;;;5.20;;
29380;SDS011;16364;52.490;13.326;2024-02-14T04:41:08;7.00;;;5.73;;
29380;SDS011;16364;52.490;13.326;2024-02-14T04:43:35;8.23;;;5.67;;
29380;SDS011;16364;52.490;13.326;2024-02-14T04:46:00;5.37;;;4.67;;
29380;SDS011;16364;52.490;13.326;2024-02-14T04:48:25;6.53;;;5.57;;
29380;SDS011;16364;52.490;13.326;2024-02-14T04:50:51;8.33;;;6.07;;
29380;SDS011;16364;52.490;13.326;2024-02-14T04:53:17;5.60;;;4.67;;
29380;SDS011;16364;52.490;13.326;2024-02-14T04:55:42;5.63;;;5.03;;
29380;SDS011;16364;52.490;13.326;2024-02-14T04:58:08;5.77;;;5.27;;
29380;SDS011;16364;52.490;13.326;2024-02-14T05:00:33;4.17;;;3.83;;
29380;SDS011;16364;52.490;13.326;2024-02-14T05:02:58;5.17;;;4.77;;
29380;SDS011;16364;52.490;13.326;2024-02-14T05:05:23;7.10;;;5.23;;
29380;SDS011;16364;52.490;13.326;2024-02-14T05:07:48;8.03;;;5.03;;
29380;SDS011;16364;52.490;13.326;2024-02-14T05:10:14;7.43;;;5.13;;
29380;SDS011;16364;52.490;13.326;2024-02-14T05:12:40;7.37;;;5.57;;
29380;SDS011;16364;52.490;13.326;2024-02-14T05:15:05;8.13;;;5.30;;
29380;SDS011;16364;52.490;13.326;2024-02-14T05:17:30;6.03;;;5.17;;
29380;SDS011;16364;52.490;13.326;2024-02-14T05:19:56;8.00;;;6.03;;
29380;SDS011;16364;52.490;13.326;2024-02-14T05:22:22;6.87;;;4.90;;
29380;SDS011;16364;52.490;13.326;2024-02-14T05:24:47;6.97;;;4.70;;
29380;SDS011;16364;52.490;13.326;2024-02-14T05:27:13;6.53;;;5.03;;
29380;SDS011;16364;52.490;13.326;2024-02-14T05:29:38;8.80;;;5.03;;
29380;SDS011;16364;52.490;13.326;2024-02-14T05:32:04;5.40;;;4.67;;
29380;SDS011;16364;52.490;13.326;2024-02-14T05:34:29;5.10;;;4.60;;
29380;SDS011;16364;52.490;13.326;2024-02-14T05:36:54;5.70;;;5.20;;
29380;SDS011;16364;52.490;13.326;2024-02-14T05:39:19;6.60;;;4.77;;
29380;SDS011;16364;52.490;13.326;2024-02-14T05:41:45;7.57;;;5.33;;
29380;SDS011;16364;52.490;13.326;2024-02-14T05:44:10;9.80;;;5.83;;
29380;SDS011;16364;52.490;13.326;2024-02-14T05:46:35;5.67;;;4.97;;
29380;SDS011;16364;52.490;13.326;2024-02-14T05:49:00;5.57;;;5.00;;
29380;SDS011;16364;52.490;13.326;2024-02-14T05:51:26;5.60;;;4.63;;
29380;SDS011;16364;52.490;13.326;2024-02-14T05:53:51;5.87;;;4.90;;
29380;SDS011;16364;52.490;13.326;2024-02-14T05:56:16;8.37;;;5.27;;
29380;SDS011;16364;52.490;13.326;2024-02-14T05:58:41;7.77;;;5.30;;
29380;SDS011;16364;52.490;13.326;2024-02-14T06:01:07;5.10;;;4.43;;
29380;SDS011;16364;52.490;13.326;2024-02-14T06:03:32;10.10;;;4.90;;
29380;SDS011;16364;52.490;13.326;2024-02-14T06:05:57;6.73;;;6.10;;
29380;SDS011;16364;52.490;13.326;2024-02-14T06:08:23;6.00;;;5.40;;
29380;SDS011;16364;52.490;13.326;2024-02-14T06:10:48;7.13;;;5.40;;
29380;SDS011;16364;52.490;13.326;2024-02-14T06:13:14;6.67;;;5.00;;
29380;SDS011;16364;52.490;13.326;2024-02-14T06:15:39;6.90;;;6.17;;
29380;SDS011;16364;52.490;13.326;2024-02-14T06:18:04;10.00;;;5.80;;
29380;SDS011;16364;52.490;13.326;2024-02-14T06:20:30;5.20;;;4.70;;
29380;SDS011;16364;52.490;13.326;2024-02-14T06:22:55;5.67;;;5.17;;
29380;SDS011;16364;52.490;13.326;2024-02-14T06:25:20;9.17;;;6.13;;
29380;SDS011;16364;52.490;13.326;2024-02-14T06:27:46;10.50;;;6.17;;
29380;SDS011;16364;52.490;13.326;2024-02-14T06:30:11;7.77;;;5.37;;
29380;SDS011;16364;52.490;13.326;2024-02-14T06:32:37;6.50;;;4.80;;
29380;SDS011;16364;52.490;13.326;2024-02-14T06:35:02;6.87;;;5.23;;
29380;SDS011;16364;52.490;13.326;2024-02-14T06:37:27;5.33;;;4.87;;
29380;SDS011;16364;52.490;13.326;2024-02-14T06:39:52;8.67;;;6.27;;
29380;SDS011;16364;52.490;13.326;2024-02-14T06:42:18;5.10;;;4.60;;
29380;SDS011;16364;52.490;13.326;2024-02-14T06:44:43;7.63;;;4.80;;
29380;SDS011;16364;52.490;13.326;2024-02-14T06:47:09;7.00;;;6.30;;
29380;SDS011;16364;52.490;13.326;2024-02-14T06:49:34;6.83;;;5.30;;
29380;SDS011;16364;52.490;13.326;2024-02-14T06:51:59;10.40;;;5.80;;
29380;SDS011;16364;52.490;13.326;2024-02-14T06:54:24;6.33;;;5.20;;
29380;SDS011;16364;52.490;13.326;2024-02-14T06:56:50;11.90;;;5.63;;
29380;SDS011;16364;52.490;13.326;2024-02-14T06:59:15;7.93;;;6.10;;
29380;SDS011;16364;52.490;13.326;2024-02-14T07:01:40;6.63;;;5.37;;
29380;SDS011;16364;52.490;13.326;2024-02-14T07:04:05;6.67;;;5.60;;
29380;SDS011;16364;52.490;13.326;2024-02-14T07:06:31;5.93;;;5.43;;
29380;SDS011;16364;52.490;13.326;2024-02-14T07:08:56;7.40;;;6.70;;
29380;SDS011;16364;52.490;13.326;2024-02-14T07:11:21;5.67;;;5.10;;
29380;SDS011;16364;52.490;13.326;2024-02-14T07:13:47;5.90;;;5.03;;
29380;SDS011;16364;52.490;13.326;2024-02-14T07:16:12;5.90;;;4.67;;
29380;SDS011;16364;52.490;13.326;2024-02-14T07:18:37;6.77;;;6.17;;
29380;SDS011;16364;52.490;13.326;2024-02-14T07:21:02;6.40;;;5.20;;
29380;SDS011;16364;52.490;13.326;2024-02-14T07:23:30;7.10;;;5.10;;
29380;SDS011;16364;52.490;13.326;2024-02-14T07:25:56;5.70;;;5.10;;
29380;SDS011;16364;52.490;13.326;2024-02-14T07:28:21;4.83;;;4.43;;
29380;SDS011;16364;52.490;13.326;2024-02-14T07:30:46;7.70;;;4.83;;
29380;SDS011;16364;52.490;13.326;2024-02-14T07:33:12;6.40;;;3.60;;
29380;SDS011;16364;52.490;13.326;2024-02-14T07:35:37;5.03;;;4.27;;
29380;SDS011;16364;52.490;13.326;2024-02-14T07:38:03;6.10;;;4.60;;
29380;SDS011;16364;52.490;13.326;2024-02-14T07:40:28;5.23;;;4.30;;
29380;SDS011;16364;52.490;13.326;2024-02-14T07:42:56;4.80;;;3.73;;
29380;SDS011;16364;52.490;13.326;2024-02-14T07:45:21;4.80;;;3.83;;
29380;SDS011;16364;52.490;13.326;2024-02-14T07:47:46;5.10;;;4.60;;
29380;SDS011;16364;52.490;13.326;2024-02-14T07:50:13;5.03;;;4.03;;
29380;SDS011;16364;52.490;13.326;2024-02-14T07:52:41;4.10;;;3.70;;
29380;SDS011;16364;52.490;13.326;2024-02-14T07:55:06;4.73;;;4.23;;
29380;SDS011;16364;52.490;13.326;2024-02-14T07:57:32;8.60;;;3.77;;
29380;SDS011;16364;52.490;13.326;2024-02-14T07:59:57;6.50;;;4.40;;
29380;SDS011;16364;52.490;13.326;2024-02-14T08:02:22;5.00;;;3.87;;
29380;SDS011;16364;52.490;13.326;2024-02-14T08:04:47;4.57;;;3.90;;
29380;SDS011;16364;52.490;13.326;2024-02-14T08:07:13;6.60;;;3.57;;
29380;SDS011;16364;52.490;13.326;2024-02-14T08:09:38;6.17;;;4.07;;
29380;SDS011;16364;52.490;13.326;2024-02-14T08:12:04;5.50;;;4.03;;
29380;SDS011;16364;52.490;13.326;2024-02-14T08:14:30;5.53;;;3.77;;
29380;SDS011;16364;52.490;13.326;2024-02-14T08:16:55;4.10;;;3.70;;
29380;SDS011;16364;52.490;13.326;2024-02-14T08:19:20;5.63;;;3.37;;
29380;SDS011;16364;52.490;13.326;2024-02-14T08:21:46;4.40;;;3.30;;
29380;SDS011;16364;52.490;13.326;2024-02-14T08:24:11;4.27;;;3.87;;
29380;SDS011;16364;52.490;13.326;2024-02-14T08:26:36;5.53;;;3.00;;
29380;SDS011;16364;52.490;13.326;2024-02-14T08:29:02;3.60;;;3.30;;
29380;SDS011;16364;52.490;13.326;2024-02-14T08:31:28;6.17;;;4.10;;
29380;SDS011;16364;52.490;13.326;2024-02-14T08:33:53;6.67;;;3.37;;
29380;SDS011;16364;52.490;13.326;2024-02-14T08:36:19;4.50;;;3.47;;
29380;SDS011;16364;52.490;13.326;2024-02-14T08:38:44;6.97;;;3.10;;
29380;SDS011;16364;52.490;13.326;2024-02-14T08:41:09;5.70;;;3.90;;
29380;SDS011;16364;52.490;13.326;2024-02-14T08:43:34;4.07;;;3.70;;
29380;SDS011;16364;52.490;13.326;2024-02-14T08:46:00;6.13;;;3.63;;
29380;SDS011;16364;52.490;13.326;2024-02-14T08:48:25;4.80;;;3.80;;
29380;SDS011;16364;52.490;13.326;2024-02-14T08:50:52;5.77;;;3.83;;
29380;SDS011;16364;52.490;13.326;2024-02-14T08:53:17;4.47;;;2.70;;
29380;SDS011;16364;52.490;13.326;2024-02-14T08:55:43;6.37;;;2.80;;
29380;SDS011;16364;52.490;13.326;2024-02-14T08:58:09;4.23;;;3.10;;
29380;SDS011;16364;52.490;13.326;2024-02-14T09:00:35;3.60;;;2.60;;
29380;SDS011;16364;52.490;13.326;2024-02-14T09:03:01;5.40;;;2.50;;
29380;SDS011;16364;52.490;13.326;2024-02-14T09:05:26;5.23;;;3.00;;
29380;SDS011;16364;52.490;13.326;2024-02-14T09:07:53;3.70;;;2.83;;
29380;SDS011;16364;52.490;13.326;2024-02-14T09:10:18;3.03;;;2.10;;
29380;SDS011;16364;52.490;13.326;2024-02-14T09:12:43;4.93;;;2.63;;
29380;SDS011;16364;52.490;13.326;2024-02-14T09:15:09;3.40;;;2.27;;
29380;SDS011;16364;52.490;13.326;2024-02-14T09:17:34;4.17;;;3.17;;
29380;SDS011;16364;52.490;13.326;2024-02-14T09:19:59;3.57;;;2.30;;
29380;SDS011;16364;52.490;13.326;2024-02-14T09:22:25;2.73;;;2.47;;
29380;SDS011;16364;52.490;13.326;2024-02-14T09:24:50;5.70;;;2.70;;
29380;SDS011;16364;52.490;13.326;2024-02-14T09:27:15;2.70;;;1.93;;
29380;SDS011;16364;52.490;13.326;2024-02-14T09:29:41;4.17;;;2.20;;
29380;SDS011;16364;52.490;13.326;2024-02-14T09:32:06;2.20;;;2.00;;
29380;SDS011;16364;52.490;13.326;2024-02-14T09:34:31;2.43;;;2.17;;
29380;SDS011;16364;52.490;13.326;2024-02-14T09:36:56;2.80;;;2.10;;
29380;SDS011;16364;52.490;13.326;2024-02-14T09:39:24;6.97;;;2.67;;
29380;SDS011;16364;52.490;13.326;2024-02-14T09:41:52;4.90;;;2.60;;
29380;SDS011;16364;52.490;13.326;2024-02-14T09:44:20;2.80;;;2.10;;
29380;SDS011;16364;52.490;13.326;2024-02-14T09:46:46;4.00;;;1.80;;
29380;SDS011;16364;52.490;13.326;2024-02-14T09:49:11;3.40;;;2.20;;
29380;SDS011;16364;52.490;13.326;2024-02-14T09:51:38;2.53;;;1.80;;
29380;SDS011;16364;52.490;13.326;2024-02-14T09:54:04;2.20;;;2.00;;
29380;SDS011;16364;52.490;13.326;2024-02-14T09:56:29;2.60;;;2.27;;
29380;SDS011;16364;52.490;13.326;2024-02-14T09:58:56;3.23;;;2.20;;
29380;SDS011;16364;52.490;13.326;2024-02-14T10:01:22;6.37;;;2.83;;
29380;SDS011;16364;52.490;13.326;2024-02-14T10:03:49;3.80;;;2.43;;
29380;SDS011;16364;52.490;13.326;2024-02-14T10:06:14;3.00;;;2.20;;
29380;SDS011;16364;52.490;13.326;2024-02-14T10:08:40;5.43;;;2.20;;
29380;SDS011;16364;52.490;13.326;2024-02-14T10:11:05;4.00;;;2.10;;
29380;SDS011;16364;52.490;13.326;2024-02-14T10:13:31;5.77;;;2.77;;
29380;SDS011;16364;52.490;13.326;2024-02-14T10:15:57;5.43;;;2.70;;
29380;SDS011;16364;52.490;13.326;2024-02-14T10:18:22;2.77;;;2.20;;
29380;SDS011;16364;52.490;13.326;2024-02-14T10:20:56;3.27;;;2.97;;
29380;SDS011;16364;52.490;13.326;2024-02-14T10:23:22;2.50;;;2.30;;
29380;SDS011;16364;52.490;13.326;2024-02-14T10:25:52;3.20;;;2.67;;
29380;SDS011;16364;52.490;13.326;2024-02-14T10:28:18;4.50;;;2.13;;
29380;SDS011;16364;52.490;13.326;2024-02-14T10:30:45;3.50;;;3.20;;
29380;SDS011;16364;52.490;13.326;2024-02-14T10:33:10;3.33;;;3.03;;
29380;SDS011;16364;52.490;13.326;2024-02-14T10:35:36;3.30;;;2.50;;
29380;SDS011;16364;52.490;13.326;2024-02-14T10:38:03;6.60;;;2.83;;
29380;SDS011;16364;52.490;13.326;2024-02-14T10:40:28;2.43;;;2.23;;
29380;SDS011;16364;52.490;13.326;2024-02-14T10:42:57;4.23;;;2.90;;
29380;SDS011;16364;52.490;13.326;2024-02-14T10:45:24;3.43;;;2.67;;
29380;SDS011;16364;52.490;13.326;2024-02-14T10:47:49;14.50;;;7.50;;
29380;SDS011;16364;52.490;13.326;2024-02-14T10:50:16;4.93;;;3.63;;
29380;SDS011;16364;52.490;13.326;2024-02-14T10:52:42;3.77;;;2.50;;
29380;SDS011;16364;52.490;13.326;2024-02-14T10:55:09;5.07;;;3.13;;
29380;SDS011;16364;52.490;13.326;2024-02-14T10:57:36;5.40;;;2.50;;
29380;SDS011;16364;52.490;13.326;2024-02-14T11:00:03;6.83;;;3.20;;
29380;SDS011;16364;52.490;13.326;2024-02-14T11:02:30;4.70;;;3.00;;
29380;SDS011;16364;52.490;13.326;2024-02-14T11:04:57;12.70;;;6.33;;
29380;SDS011;16364;52.490;13.326;2024-02-14T11:07:23;6.10;;;3.13;;
29380;SDS011;16364;52.490;13.326;2024-02-14T11:09:48;3.20;;;2.90;;
29380;SDS011;16364;52.490;13.326;2024-02-14T11:12:13;3.17;;;2.80;;
29380;SDS011;16364;52.490;13.326;2024-02-14T11:14:41;2.67;;;2.30;;
29380;SDS011;16364;52.490;13.326;2024-02-14T11:17:10;3.50;;;2.50;;
29380;SDS011;16364;52.490;13.326;2024-02-14T11:19:37;6.97;;;2.90;;
29380;SDS011;16364;52.490;13.326;2024-02-14T11:22:18;6.20;;;2.80;;
29380;SDS011;16364;52.490;13.326;2024-02-14T11:24:47;7.70;;;3.20;;
29380;SDS011;16364;52.490;13.326;2024-02-14T11:27:13;4.90;;;2.50;;
29380;SDS011;16364;52.490;13.326;2024-02-14T11:29:38;5.10;;;2.53;;
29380;SDS011;16364;52.490;13.326;2024-02-14T11:32:05;3.23;;;2.70;;
29380;SDS011;16364;52.490;13.326;2024-02-14T11:34:33;4.07;;;2.33;;
29380;SDS011;16364;52.490;13.326;2024-02-14T11:36:58;4.43;;;2.80;;
29380;SDS011;16364;52.490;13.326;2024-02-14T11:39:25;6.43;;;3.60;;
29380;SDS011;16364;52.490;13.326;2024-02-14T11:41:50;6.40;;;2.67;;
29380;SDS011;16364;52.490;13.326;2024-02-14T11:44:15;5.30;;;2.93;;
29380;SDS011;16364;52.490;13.326;2024-02-14T11:46:41;4.07;;;3.67;;
29380;SDS011;16364;52.490;13.326;2024-02-14T11:49:06;4.20;;;3.23;;
29380;SDS011;16364;52.490;13.326;2024-02-14T11:51:33;6.83;;;2.87;;
29380;SDS011;16364;52.490;13.326;2024-02-14T11:53:58;2.87;;;2.50;;
29380;SDS011;16364;52.490;13.326;2024-02-14T11:56:33;3.60;;;2.80;;
29380;SDS011;16364;52.490;13.326;2024-02-14T11:59:02;5.07;;;3.23;;
29380;SDS011;16364;52.490;13.326;2024-02-14T12:01:31;3.17;;;2.80;;
29380;SDS011;16364;52.490;13.326;2024-02-14T12:03:59;4.23;;;2.80;;
29380;SDS011;16364;52.490;13.326;2024-02-14T12:06:26;5.63;;;3.63;;
29380;SDS011;16364;52.490;13.326;2024-02-14T12:08:51;3.50;;;3.13;;
29380;SDS011;16364;52.490;13.326;2024-02-14T12:11:17;4.90;;;3.63;;
29380;SDS011;16364;52.490;13.326;2024-02-14T12:13:43;4.53;;;3.53;;
29380;SDS011;16364;52.490;13.326;2024-02-14T12:16:10;3.67;;;3.07;;
29380;SDS011;16364;52.490;13.326;2024-02-14T12:18:35;4.37;;;3.90;;
29380;SDS011;16364;52.490;13.326;2024-02-14T12:21:03;4.00;;;3.60;;
29380;SDS011;16364;52.490;13.326;2024-02-14T12:23:32;7.27;;;4.40;;
29380;SDS011;16364;52.490;13.326;2024-02-14T12:26:00;4.23;;;3.17;;
29380;SDS011;16364;52.490;13.326;2024-02-14T12:28:28;3.90;;;2.93;;
29380;SDS011;16364;52.490;13.326;2024-02-14T12:30:53;8.00;;;3.60;;
29380;SDS011;16364;52.490;13.326;2024-02-14T12:33:21;9.63;;;3.77;;
29380;SDS011;16364;52.490;13.326;2024-02-14T12:35:47;3.43;;;2.97;;
29380;SDS011;16364;52.490;13.326;2024-02-14T12:38:13;4.10;;;3.67;;
29380;SDS011;16364;52.490;13.326;2024-02-14T12:40:39;4.37;;;3.97;;
29380;SDS011;16364;52.490;13.326;2024-02-14T12:43:07;5.27;;;3.83;;
29380;SDS011;16364;52.490;13.326;2024-02-14T12:45:32;5.07;;;4.00;;
29380;SDS011;16364;52.490;13.326;2024-02-14T12:47:57;3.80;;;3.10;;
29380;SDS011;16364;52.490;13.326;2024-02-14T12:50:24;3.10;;;2.90;;
29380;SDS011;16364;52.490;13.326;2024-02-14T12:52:49;5.77;;;3.97;;
29380;SDS011;16364;52.490;13.326;2024-02-14T12:55:15;5.83;;;3.93;;
29380;SDS011;16364;52.490;13.326;2024-02-14T12:57:40;5.80;;;4.07;;
29380;SDS011;16364;52.490;13.326;2024-02-14T13:00:05;5.17;;;3.80;;
29380;SDS011;16364;52.490;13.326;2024-02-14T13:02:33;4.10;;;3.50;;
29380;SDS011;16364;52.490;13.326;2024-02-14T13:04:58;8.90;;;3.63;;
29380;SDS011;16364;52.490;13.326;2024-02-14T13:07:24;8.70;;;4.50;;
29380;SDS011;16364;52.490;13.326;2024-02-14T13:09:49;6.20;;;4.70;;
29380;SDS011;16364;52.490;13.326;2024-02-14T13:12:16;5.47;;;3.57;;
29380;SDS011;16364;52.490;13.326;2024-02-14T13:14:41;4.57;;;4.10;;
29380;SDS011;16364;52.490;13.326;2024-02-14T13:17:06;4.13;;;3.80;;
29380;SDS011;16364;52.490;13.326;2024-02-14T13:19:31;6.07;;;3.97;;
29380;SDS011;16364;52.490;13.326;2024-02-14T13:21:57;4.20;;;3.60;;
29380;SDS011;16364;52.490;13.326;2024-02-14T13:24:22;6.40;;;4.20;;
29380;SDS011;16364;52.490;13.326;2024-02-14T13:26:47;5.10;;;4.47;;
29380;SDS011;16364;52.490;13.326;2024-02-14T13:29:12;5.17;;;4.70;;
29380;SDS011;16364;52.490;13.326;2024-02-14T13:31:38;6.60;;;3.87;;
29380;SDS011;16364;52.490;13.326;2024-02-14T13:34:03;4.47;;;3.83;;
29380;SDS011;16364;52.490;13.326;2024-02-14T13:36:28;8.03;;;4.20;;
29380;SDS011;16364;52.490;13.326;2024-02-14T13:38:54;4.10;;;3.50;;
29380;SDS011;16364;52.490;13.326;2024-02-14T13:41:19;5.60;;;3.90;;
29380;SDS011;16364;52.490;13.326;2024-02-14T13:43:44;5.00;;;3.77;;
29380;SDS011;16364;52.490;13.326;2024-02-14T13:46:09;7.80;;;4.53;;
29380;SDS011;16364;52.490;13.326;2024-02-14T13:48:35;4.70;;;4.30;;
29380;SDS011;16364;52.490;13.326;2024-02-14T13:51:00;5.90;;;4.17;;
29380;SDS011;16364;52.490;13.326;2024-02-14T13:53:28;6.57;;;4.13;;
29380;SDS011;16364;52.490;13.326;2024-02-14T13:55:53;10.03;;;5.10;;
29380;SDS011;16364;52.490;13.326;2024-02-14T13:58:19;4.23;;;3.83;;
29380;SDS011;16364;52.490;13.326;2024-02-14T14:00:44;5.67;;;5.27;;
29380;SDS011;16364;52.490;13.326;2024-02-14T14:03:09;5.37;;;4.90;;
29380;SDS011;16364;52.490;13.326;2024-02-14T14:05:35;7.17;;;5.57;;
29380;SDS011;16364;52.490;13.326;2024-02-14T14:08:00;7.50;;;5.10;;
29380;SDS011;16364;52.490;13.326;2024-02-14T14:10:26;4.90;;;4.50;;
29380;SDS011;16364;52.490;13.326;2024-02-14T14:12:52;7.20;;;5.67;;
29380;SDS011;16364;52.490;13.326;2024-02-14T14:15:17;6.10;;;4.23;;
29380;SDS011;16364;52.490;13.326;2024-02-14T14:17:43;7.47;;;5.20;;
29380;SDS011;16364;52.490;13.326;2024-02-14T14:20:08;5.77;;;5.27;;
29380;SDS011;16364;52.490;13.326;2024-02-14T14:22:33;14.23;;;5.20;;
29380;SDS011;16364;52.490;13.326;2024-02-14T14:24:58;7.50;;;6.83;;